KLBL/LBL METAR and TAF weather

Enter ICAO airport designator
Station Type Date Time Source
KLBL METAR 2022/06/25 22:56 UTC NOAA

KLBL 252256Z AUTO 04018G23KT 10SM CLR 29/14 A3013 RMK AO2 SLP169 T02940144


Station Type Date Time Source
KLBL Decoded METAR 2022/06/25 22:56 UTC NOAA

Liberal, Liberal Municipal Airport, KS, United States (KLBL) 37-03N 100-58W
Jun 25, 2022 - 06:56 PM EDT / 2022.06.25 2256 UTC
Wind: from the NE (040 degrees) at 21 MPH (18 KT) gusting to 26 MPH (23 KT):0
Visibility: 10 mile(s):0
Sky conditions: clear
Temperature: 84.9 F (29.4 C)
Dew Point: 57.9 F (14.4 C)
Relative Humidity: 39%
Pressure (altimeter): 30.13 in. Hg (1020 hPa)
ob: KLBL 252256Z AUTO 04018G23KT 10SM CLR 29/14 A3013 RMK AO2 SLP169 T02940144
cycle: 23

Station Type Date Time Source
KLBL TAF 2022/06/25 18:21 UTC NOAA

TAF KLBL 251720Z 2518/2618 01025G35KT P6SM SCT100 SCT200
FM260000 01015G25KT P6SM BKN200
FM260300 02012KT P6SM VCSH OVC100
FM260600 03012KT P6SM -SHRA OVC050
FM261200 03010KT P6SM -RA OVC035
FM261500 05012G22KT P6SM -SHRA OVC040

Example: see airport list